sensor_id;sensor_type;location;lat;lon;timestamp;P1;durP1;ratioP1;P2;durP2;ratioP2
51636;SDS011;37713;53.254;6.460;2023-04-06T00:01:11;12.27;;;6.70;;
51636;SDS011;37713;53.254;6.460;2023-04-06T00:03:37;13.50;;;7.68;;
51636;SDS011;37713;53.254;6.460;2023-04-06T00:06:03;10.77;;;6.70;;
51636;SDS011;37713;53.254;6.460;2023-04-06T00:08:29;12.25;;;7.35;;
51636;SDS011;37713;53.254;6.460;2023-04-06T00:10:55;14.35;;;6.80;;
51636;SDS011;37713;53.254;6.460;2023-04-06T00:13:21;14.35;;;7.97;;
51636;SDS011;37713;53.254;6.460;2023-04-06T00:15:47;12.85;;;7.28;;
51636;SDS011;37713;53.254;6.460;2023-04-06T00:18:13;13.88;;;7.70;;
51636;SDS011;37713;53.254;6.460;2023-04-06T00:20:39;11.40;;;7.03;;
51636;SDS011;37713;53.254;6.460;2023-04-06T00:23:05;12.73;;;7.50;;
51636;SDS011;37713;53.254;6.460;2023-04-06T00:25:31;13.88;;;7.80;;
51636;SDS011;37713;53.254;6.460;2023-04-06T00:27:56;14.52;;;7.88;;
51636;SDS011;37713;53.254;6.460;2023-04-06T00:30:22;13.10;;;7.32;;
51636;SDS011;37713;53.254;6.460;2023-04-06T00:32:48;12.98;;;7.32;;
51636;SDS011;37713;53.254;6.460;2023-04-06T00:35:14;14.88;;;8.07;;
51636;SDS011;37713;53.254;6.460;2023-04-06T00:37:41;13.13;;;7.85;;
51636;SDS011;37713;53.254;6.460;2023-04-06T00:40:07;15.35;;;7.70;;
51636;SDS011;37713;53.254;6.460;2023-04-06T00:42:33;15.98;;;7.72;;
51636;SDS011;37713;53.254;6.460;2023-04-06T00:45:00;13.15;;;7.97;;
51636;SDS011;37713;53.254;6.460;2023-04-06T00:47:26;12.00;;;7.80;;
51636;SDS011;37713;53.254;6.460;2023-04-06T00:49:53;16.50;;;8.20;;
51636;SDS011;37713;53.254;6.460;2023-04-06T00:52:20;13.40;;;7.82;;
51636;SDS011;37713;53.254;6.460;2023-04-06T00:54:46;13.15;;;7.90;;
51636;SDS011;37713;53.254;6.460;2023-04-06T00:57:12;13.32;;;7.50;;
51636;SDS011;37713;53.254;6.460;2023-04-06T00:59:39;14.50;;;8.13;;
51636;SDS011;37713;53.254;6.460;2023-04-06T01:02:05;13.65;;;8.55;;
51636;SDS011;37713;53.254;6.460;2023-04-06T01:04:32;13.25;;;8.07;;
51636;SDS011;37713;53.254;6.460;2023-04-06T01:06:58;14.43;;;8.05;;
51636;SDS011;37713;53.254;6.460;2023-04-06T01:09:24;17.70;;;8.75;;
51636;SDS011;37713;53.254;6.460;2023-04-06T01:11:52;12.55;;;7.50;;
51636;SDS011;37713;53.254;6.460;2023-04-06T01:14:17;12.98;;;7.88;;
51636;SDS011;37713;53.254;6.460;2023-04-06T01:16:43;12.90;;;7.25;;
51636;SDS011;37713;53.254;6.460;2023-04-06T01:19:10;15.68;;;8.05;;
51636;SDS011;37713;53.254;6.460;2023-04-06T01:21:37;12.93;;;7.82;;
51636;SDS011;37713;53.254;6.460;2023-04-06T01:24:03;13.23;;;8.00;;
51636;SDS011;37713;53.254;6.460;2023-04-06T01:26:30;13.88;;;7.78;;
51636;SDS011;37713;53.254;6.460;2023-04-06T01:28:56;14.85;;;8.38;;
51636;SDS011;37713;53.254;6.460;2023-04-06T01:31:23;14.75;;;7.88;;
51636;SDS011;37713;53.254;6.460;2023-04-06T01:33:49;13.95;;;7.93;;
51636;SDS011;37713;53.254;6.460;2023-04-06T01:36:15;13.75;;;7.90;;
51636;SDS011;37713;53.254;6.460;2023-04-06T01:38:41;11.70;;;7.55;;
51636;SDS011;37713;53.254;6.460;2023-04-06T01:41:07;13.27;;;8.10;;
51636;SDS011;37713;53.254;6.460;2023-04-06T01:43:34;13.75;;;7.72;;
51636;SDS011;37713;53.254;6.460;2023-04-06T01:46:00;14.23;;;7.75;;
51636;SDS011;37713;53.254;6.460;2023-04-06T01:48:26;11.77;;;7.32;;
51636;SDS011;37713;53.254;6.460;2023-04-06T01:50:53;14.23;;;9.23;;
51636;SDS011;37713;53.254;6.460;2023-04-06T01:53:19;11.82;;;7.57;;
51636;SDS011;37713;53.254;6.460;2023-04-06T01:55:45;12.57;;;7.93;;
51636;SDS011;37713;53.254;6.460;2023-04-06T01:58:11;13.75;;;7.72;;
51636;SDS011;37713;53.254;6.460;2023-04-06T02:00:38;14.77;;;8.40;;
51636;SDS011;37713;53.254;6.460;2023-04-06T02:03:04;12.88;;;7.93;;
51636;SDS011;37713;53.254;6.460;2023-04-06T02:05:30;13.57;;;7.80;;
51636;SDS011;37713;53.254;6.460;2023-04-06T02:08:02;12.65;;;7.57;;
51636;SDS011;37713;53.254;6.460;2023-04-06T02:10:30;13.52;;;7.20;;
51636;SDS011;37713;53.254;6.460;2023-04-06T02:12:56;12.48;;;7.65;;
51636;SDS011;37713;53.254;6.460;2023-04-06T02:15:22;13.88;;;7.80;;
51636;SDS011;37713;53.254;6.460;2023-04-06T02:17:48;12.65;;;8.05;;
51636;SDS011;37713;53.254;6.460;2023-04-06T02:20:14;13.60;;;7.93;;
51636;SDS011;37713;53.254;6.460;2023-04-06T02:22:40;12.48;;;7.95;;
51636;SDS011;37713;53.254;6.460;2023-04-06T02:25:06;13.18;;;7.47;;
51636;SDS011;37713;53.254;6.460;2023-04-06T02:27:32;13.85;;;7.57;;
51636;SDS011;37713;53.254;6.460;2023-04-06T02:29:58;14.40;;;7.75;;
51636;SDS011;37713;53.254;6.460;2023-04-06T02:32:25;14.23;;;7.35;;
51636;SDS011;37713;53.254;6.460;2023-04-06T02:34:51;13.15;;;7.75;;
51636;SDS011;37713;53.254;6.460;2023-04-06T02:37:17;12.30;;;7.32;;
51636;SDS011;37713;53.254;6.460;2023-04-06T02:39:42;16.50;;;8.30;;
51636;SDS011;37713;53.254;6.460;2023-04-06T02:42:08;12.32;;;7.70;;
51636;SDS011;37713;53.254;6.460;2023-04-06T02:44:34;13.48;;;8.02;;
51636;SDS011;37713;53.254;6.460;2023-04-06T02:47:00;13.38;;;7.53;;
51636;SDS011;37713;53.254;6.460;2023-04-06T02:49:26;13.05;;;7.70;;
51636;SDS011;37713;53.254;6.460;2023-04-06T02:51:52;13.60;;;7.93;;
51636;SDS011;37713;53.254;6.460;2023-04-06T02:54:17;15.07;;;8.15;;
51636;SDS011;37713;53.254;6.460;2023-04-06T02:56:43;12.38;;;7.90;;
51636;SDS011;37713;53.254;6.460;2023-04-06T02:59:09;14.23;;;7.80;;
51636;SDS011;37713;53.254;6.460;2023-04-06T03:01:35;15.73;;;8.43;;
51636;SDS011;37713;53.254;6.460;2023-04-06T03:04:02;14.40;;;8.40;;
51636;SDS011;37713;53.254;6.460;2023-04-06T03:06:28;13.13;;;8.25;;
51636;SDS011;37713;53.254;6.460;2023-04-06T03:08:55;12.60;;;8.30;;
51636;SDS011;37713;53.254;6.460;2023-04-06T03:11:21;17.38;;;8.30;;
51636;SDS011;37713;53.254;6.460;2023-04-06T03:13:47;16.27;;;9.18;;
51636;SDS011;37713;53.254;6.460;2023-04-06T03:16:13;15.52;;;8.15;;
51636;SDS011;37713;53.254;6.460;2023-04-06T03:18:38;14.25;;;8.45;;
51636;SDS011;37713;53.254;6.460;2023-04-06T03:21:04;16.02;;;9.45;;
51636;SDS011;37713;53.254;6.460;2023-04-06T03:23:30;15.75;;;8.50;;
51636;SDS011;37713;53.254;6.460;2023-04-06T03:25:56;18.20;;;10.10;;
51636;SDS011;37713;53.254;6.460;2023-04-06T03:28:21;14.50;;;8.82;;
51636;SDS011;37713;53.254;6.460;2023-04-06T03:30:48;18.95;;;9.27;;
51636;SDS011;37713;53.254;6.460;2023-04-06T03:33:14;16.27;;;8.80;;
51636;SDS011;37713;53.254;6.460;2023-04-06T03:35:40;15.25;;;9.63;;
51636;SDS011;37713;53.254;6.460;2023-04-06T03:38:06;14.48;;;8.68;;
51636;SDS011;37713;53.254;6.460;2023-04-06T03:40:32;17.27;;;9.38;;
51636;SDS011;37713;53.254;6.460;2023-04-06T03:42:58;15.30;;;9.15;;
51636;SDS011;37713;53.254;6.460;2023-04-06T03:45:24;18.38;;;9.52;;
51636;SDS011;37713;53.254;6.460;2023-04-06T03:47:50;19.38;;;9.05;;
51636;SDS011;37713;53.254;6.460;2023-04-06T03:50:16;14.40;;;8.70;;
51636;SDS011;37713;53.254;6.460;2023-04-06T03:52:42;14.90;;;8.98;;
51636;SDS011;37713;53.254;6.460;2023-04-06T03:55:08;15.07;;;8.85;;
51636;SDS011;37713;53.254;6.460;2023-04-06T03:57:33;13.23;;;8.25;;
51636;SDS011;37713;53.254;6.460;2023-04-06T04:00:00;13.23;;;8.45;;
51636;SDS011;37713;53.254;6.460;2023-04-06T04:02:25;15.63;;;9.23;;
51636;SDS011;37713;53.254;6.460;2023-04-06T04:04:51;14.05;;;8.63;;
51636;SDS011;37713;53.254;6.460;2023-04-06T04:07:17;15.18;;;8.32;;
51636;SDS011;37713;53.254;6.460;2023-04-06T04:09:43;16.25;;;9.07;;
51636;SDS011;37713;53.254;6.460;2023-04-06T04:12:09;15.18;;;8.50;;
51636;SDS011;37713;53.254;6.460;2023-04-06T04:14:34;14.10;;;8.52;;
51636;SDS011;37713;53.254;6.460;2023-04-06T04:17:00;18.92;;;10.18;;
51636;SDS011;37713;53.254;6.460;2023-04-06T04:19:26;15.63;;;10.35;;
51636;SDS011;37713;53.254;6.460;2023-04-06T04:21:52;15.73;;;9.70;;
51636;SDS011;37713;53.254;6.460;2023-04-06T04:24:18;16.02;;;9.63;;
51636;SDS011;37713;53.254;6.460;2023-04-06T04:26:44;16.33;;;9.30;;
51636;SDS011;37713;53.254;6.460;2023-04-06T04:29:10;14.93;;;9.15;;
51636;SDS011;37713;53.254;6.460;2023-04-06T04:31:37;17.30;;;9.18;;
51636;SDS011;37713;53.254;6.460;2023-04-06T04:34:03;17.77;;;8.60;;
51636;SDS011;37713;53.254;6.460;2023-04-06T04:36:29;17.13;;;9.35;;
51636;SDS011;37713;53.254;6.460;2023-04-06T04:38:54;15.35;;;8.52;;
51636;SDS011;37713;53.254;6.460;2023-04-06T04:41:21;12.90;;;8.40;;
51636;SDS011;37713;53.254;6.460;2023-04-06T04:43:46;14.82;;;8.73;;
51636;SDS011;37713;53.254;6.460;2023-04-06T04:46:12;15.50;;;8.70;;
51636;SDS011;37713;53.254;6.460;2023-04-06T04:48:38;15.30;;;9.10;;
51636;SDS011;37713;53.254;6.460;2023-04-06T04:51:04;15.57;;;9.60;;
51636;SDS011;37713;53.254;6.460;2023-04-06T04:53:30;15.63;;;9.25;;
51636;SDS011;37713;53.254;6.460;2023-04-06T04:55:56;16.02;;;9.38;;
51636;SDS011;37713;53.254;6.460;2023-04-06T04:58:22;15.63;;;9.05;;
51636;SDS011;37713;53.254;6.460;2023-04-06T05:00:48;19.45;;;9.77;;
51636;SDS011;37713;53.254;6.460;2023-04-06T05:03:16;15.88;;;9.05;;
51636;SDS011;37713;53.254;6.460;2023-04-06T05:05:50;17.65;;;9.50;;
51636;SDS011;37713;53.254;6.460;2023-04-06T05:08:15;16.27;;;9.70;;
51636;SDS011;37713;53.254;6.460;2023-04-06T05:10:42;16.13;;;9.52;;
51636;SDS011;37713;53.254;6.460;2023-04-06T05:13:08;14.85;;;9.50;;
51636;SDS011;37713;53.254;6.460;2023-04-06T05:15:33;16.42;;;9.68;;
51636;SDS011;37713;53.254;6.460;2023-04-06T05:18:00;16.17;;;9.45;;
51636;SDS011;37713;53.254;6.460;2023-04-06T05:20:26;19.33;;;9.35;;
51636;SDS011;37713;53.254;6.460;2023-04-06T05:22:53;16.48;;;9.63;;
51636;SDS011;37713;53.254;6.460;2023-04-06T05:25:19;15.43;;;9.07;;
51636;SDS011;37713;53.254;6.460;2023-04-06T05:27:45;17.25;;;9.23;;
51636;SDS011;37713;53.254;6.460;2023-04-06T05:30:11;19.63;;;9.93;;
51636;SDS011;37713;53.254;6.460;2023-04-06T05:32:37;19.38;;;9.80;;
51636;SDS011;37713;53.254;6.460;2023-04-06T05:35:03;15.73;;;9.73;;
51636;SDS011;37713;53.254;6.460;2023-04-06T05:37:29;17.73;;;10.13;;
51636;SDS011;37713;53.254;6.460;2023-04-06T05:39:55;16.40;;;9.27;;
51636;SDS011;37713;53.254;6.460;2023-04-06T05:42:21;15.48;;;8.80;;
51636;SDS011;37713;53.254;6.460;2023-04-06T05:44:48;16.55;;;8.60;;
51636;SDS011;37713;53.254;6.460;2023-04-06T05:47:14;15.25;;;9.05;;
51636;SDS011;37713;53.254;6.460;2023-04-06T05:49:41;14.20;;;8.40;;
51636;SDS011;37713;53.254;6.460;2023-04-06T05:52:08;15.43;;;9.07;;
51636;SDS011;37713;53.254;6.460;2023-04-06T05:54:35;17.05;;;9.45;;
51636;SDS011;37713;53.254;6.460;2023-04-06T05:57:02;16.35;;;9.68;;
51636;SDS011;37713;53.254;6.460;2023-04-06T05:59:31;16.02;;;9.38;;
51636;SDS011;37713;53.254;6.460;2023-04-06T06:01:57;16.77;;;8.90;;
51636;SDS011;37713;53.254;6.460;2023-04-06T06:04:23;19.15;;;10.27;;
51636;SDS011;37713;53.254;6.460;2023-04-06T06:06:49;15.32;;;9.27;;
51636;SDS011;37713;53.254;6.460;2023-04-06T06:09:15;17.10;;;9.27;;
51636;SDS011;37713;53.254;6.460;2023-04-06T06:11:40;17.98;;;9.82;;
51636;SDS011;37713;53.254;6.460;2023-04-06T06:14:07;17.70;;;9.25;;
51636;SDS011;37713;53.254;6.460;2023-04-06T06:16:33;14.70;;;8.80;;
51636;SDS011;37713;53.254;6.460;2023-04-06T06:18:59;14.73;;;9.13;;
51636;SDS011;37713;53.254;6.460;2023-04-06T06:21:25;16.08;;;9.05;;
51636;SDS011;37713;53.254;6.460;2023-04-06T06:23:51;18.35;;;9.70;;
51636;SDS011;37713;53.254;6.460;2023-04-06T06:26:19;17.05;;;9.50;;
51636;SDS011;37713;53.254;6.460;2023-04-06T06:28:45;16.08;;;9.43;;
51636;SDS011;37713;53.254;6.460;2023-04-06T06:31:11;17.23;;;9.77;;
51636;SDS011;37713;53.254;6.460;2023-04-06T06:33:37;15.18;;;8.60;;
51636;SDS011;37713;53.254;6.460;2023-04-06T06:36:03;16.15;;;9.93;;
51636;SDS011;37713;53.254;6.460;2023-04-06T06:38:29;16.48;;;9.18;;
51636;SDS011;37713;53.254;6.460;2023-04-06T06:40:55;13.70;;;9.20;;
51636;SDS011;37713;53.254;6.460;2023-04-06T06:43:21;15.02;;;9.73;;
51636;SDS011;37713;53.254;6.460;2023-04-06T06:45:47;15.73;;;10.07;;
51636;SDS011;37713;53.254;6.460;2023-04-06T06:48:13;15.73;;;9.70;;
51636;SDS011;37713;53.254;6.460;2023-04-06T06:50:39;13.85;;;9.60;;
51636;SDS011;37713;53.254;6.460;2023-04-06T06:53:05;13.00;;;9.00;;
51636;SDS011;37713;53.254;6.460;2023-04-06T06:55:31;16.67;;;9.30;;
51636;SDS011;37713;53.254;6.460;2023-04-06T06:57:56;17.45;;;9.15;;
51636;SDS011;37713;53.254;6.460;2023-04-06T07:00:23;14.32;;;8.98;;
51636;SDS011;37713;53.254;6.460;2023-04-06T07:02:49;14.60;;;8.88;;
51636;SDS011;37713;53.254;6.460;2023-04-06T07:05:15;16.65;;;10.20;;
51636;SDS011;37713;53.254;6.460;2023-04-06T07:07:41;13.27;;;9.30;;
51636;SDS011;37713;53.254;6.460;2023-04-06T07:10:07;14.48;;;8.75;;
51636;SDS011;37713;53.254;6.460;2023-04-06T07:12:33;15.85;;;9.35;;
51636;SDS011;37713;53.254;6.460;2023-04-06T07:15:00;15.48;;;9.02;;
51636;SDS011;37713;53.254;6.460;2023-04-06T07:17:26;14.50;;;9.02;;
51636;SDS011;37713;53.254;6.460;2023-04-06T07:19:52;15.40;;;8.63;;
51636;SDS011;37713;53.254;6.460;2023-04-06T07:22:17;13.00;;;8.90;;
51636;SDS011;37713;53.254;6.460;2023-04-06T07:24:43;15.00;;;9.30;;
51636;SDS011;37713;53.254;6.460;2023-04-06T07:27:09;14.18;;;8.98;;
51636;SDS011;37713;53.254;6.460;2023-04-06T07:29:35;14.38;;;8.60;;
51636;SDS011;37713;53.254;6.460;2023-04-06T07:32:01;12.40;;;8.80;;
51636;SDS011;37713;53.254;6.460;2023-04-06T07:34:27;10.63;;;8.00;;
51636;SDS011;37713;53.254;6.460;2023-04-06T07:36:53;14.05;;;8.65;;
51636;SDS011;37713;53.254;6.460;2023-04-06T07:39:19;15.77;;;8.63;;
51636;SDS011;37713;53.254;6.460;2023-04-06T07:41:45;13.98;;;9.07;;
51636;SDS011;37713;53.254;6.460;2023-04-06T07:44:11;15.02;;;8.85;;
51636;SDS011;37713;53.254;6.460;2023-04-06T07:46:37;15.27;;;9.25;;
51636;SDS011;37713;53.254;6.460;2023-04-06T07:49:03;16.88;;;9.25;;
51636;SDS011;37713;53.254;6.460;2023-04-06T07:51:29;16.05;;;9.07;;
51636;SDS011;37713;53.254;6.460;2023-04-06T07:53:54;14.52;;;8.48;;
51636;SDS011;37713;53.254;6.460;2023-04-06T07:56:20;15.25;;;9.60;;
51636;SDS011;37713;53.254;6.460;2023-04-06T07:58:46;15.55;;;9.00;;
51636;SDS011;37713;53.254;6.460;2023-04-06T08:01:12;15.30;;;9.23;;
51636;SDS011;37713;53.254;6.460;2023-04-06T08:03:38;16.98;;;9.55;;
51636;SDS011;37713;53.254;6.460;2023-04-06T08:06:04;14.85;;;9.40;;
51636;SDS011;37713;53.254;6.460;2023-04-06T08:08:30;15.73;;;9.65;;
51636;SDS011;37713;53.254;6.460;2023-04-06T08:10:56;14.18;;;9.27;;
51636;SDS011;37713;53.254;6.460;2023-04-06T08:13:22;15.95;;;9.18;;
51636;SDS011;37713;53.254;6.460;2023-04-06T08:15:48;14.57;;;8.98;;
51636;SDS011;37713;53.254;6.460;2023-04-06T08:18:14;13.68;;;9.20;;
51636;SDS011;37713;53.254;6.460;2023-04-06T08:20:40;14.40;;;8.85;;
51636;SDS011;37713;53.254;6.460;2023-04-06T08:23:06;16.23;;;9.05;;
51636;SDS011;37713;53.254;6.460;2023-04-06T08:25:33;14.57;;;8.98;;
51636;SDS011;37713;53.254;6.460;2023-04-06T08:28:00;15.13;;;9.75;;
51636;SDS011;37713;53.254;6.460;2023-04-06T08:30:27;15.35;;;8.75;;
51636;SDS011;37713;53.254;6.460;2023-04-06T08:32:53;15.20;;;9.27;;
51636;SDS011;37713;53.254;6.460;2023-04-06T08:35:19;16.40;;;9.43;;
51636;SDS011;37713;53.254;6.460;2023-04-06T08:37:45;14.98;;;9.02;;
51636;SDS011;37713;53.254;6.460;2023-04-06T08:40:11;16.27;;;9.57;;
51636;SDS011;37713;53.254;6.460;2023-04-06T08:42:44;14.93;;;9.45;;
51636;SDS011;37713;53.254;6.460;2023-04-06T08:45:17;16.33;;;8.80;;
51636;SDS011;37713;53.254;6.460;2023-04-06T08:47:46;14.80;;;9.70;;
51636;SDS011;37713;53.254;6.460;2023-04-06T08:50:13;15.65;;;9.15;;
51636;SDS011;37713;53.254;6.460;2023-04-06T08:52:41;14.70;;;9.27;;
51636;SDS011;37713;53.254;6.460;2023-04-06T08:55:09;14.40;;;8.88;;
51636;SDS011;37713;53.254;6.460;2023-04-06T08:57:35;15.00;;;8.75;;
51636;SDS011;37713;53.254;6.460;2023-04-06T09:00:02;12.77;;;8.60;;
51636;SDS011;37713;53.254;6.460;2023-04-06T09:02:28;15.65;;;9.65;;
51636;SDS011;37713;53.254;6.460;2023-04-06T09:04:54;15.93;;;9.20;;
51636;SDS011;37713;53.254;6.460;2023-04-06T09:07:20;16.25;;;9.75;;
51636;SDS011;37713;53.254;6.460;2023-04-06T09:09:46;16.30;;;9.40;;
51636;SDS011;37713;53.254;6.460;2023-04-06T09:14:48;13.07;;;8.65;;
51636;SDS011;37713;53.254;6.460;2023-04-06T09:17:21;13.38;;;9.15;;
51636;SDS011;37713;53.254;6.460;2023-04-06T09:19:51;14.52;;;9.27;;
51636;SDS011;37713;53.254;6.460;2023-04-06T09:22:17;14.65;;;9.68;;
51636;SDS011;37713;53.254;6.460;2023-04-06T09:24:50;18.42;;;9.70;;
51636;SDS011;37713;53.254;6.460;2023-04-06T09:27:17;14.57;;;10.05;;
51636;SDS011;37713;53.254;6.460;2023-04-06T09:30:02;16.05;;;9.85;;
51636;SDS011;37713;53.254;6.460;2023-04-06T09:32:32;18.10;;;10.35;;
51636;SDS011;37713;53.254;6.460;2023-04-06T09:35:07;22.10;;;12.48;;
51636;SDS011;37713;53.254;6.460;2023-04-06T09:37:33;15.60;;;10.63;;
51636;SDS011;37713;53.254;6.460;2023-04-06T09:40:06;22.10;;;10.35;;
51636;SDS011;37713;53.254;6.460;2023-04-06T09:42:33;15.60;;;10.18;;
51636;SDS011;37713;53.254;6.460;2023-04-06T09:45:00;15.98;;;10.48;;
51636;SDS011;37713;53.254;6.460;2023-04-06T09:47:26;16.38;;;10.60;;
51636;SDS011;37713;53.254;6.460;2023-04-06T09:49:55;16.38;;;10.82;;
51636;SDS011;37713;53.254;6.460;2023-04-06T09:52:26;19.13;;;10.95;;
51636;SDS011;37713;53.254;6.460;2023-04-06T09:54:59;15.25;;;10.32;;
51636;SDS011;37713;53.254;6.460;2023-04-06T09:57:32;17.58;;;11.00;;
51636;SDS011;37713;53.254;6.460;2023-04-06T10:00:21;20.98;;;11.15;;
51636;SDS011;37713;53.254;6.460;2023-04-06T10:08:06;16.92;;;11.32;;
51636;SDS011;37713;53.254;6.460;2023-04-06T10:10:35;20.15;;;12.30;;
51636;SDS011;37713;53.254;6.460;2023-04-06T10:13:01;25.02;;;12.93;;
51636;SDS011;37713;53.254;6.460;2023-04-06T10:15:28;19.88;;;12.70;;
51636;SDS011;37713;53.254;6.460;2023-04-06T10:17:55;22.25;;;13.07;;
51636;SDS011;37713;53.254;6.460;2023-04-06T10:25:32;20.13;;;13.30;;
51636;SDS011;37713;53.254;6.460;2023-04-06T10:28:02;22.33;;;14.00;;
51636;SDS011;37713;53.254;6.460;2023-04-06T10:30:32;23.52;;;14.38;;
51636;SDS011;37713;53.254;6.460;2023-04-06T10:32:59;24.27;;;14.02;;
51636;SDS011;37713;53.254;6.460;2023-04-06T10:35:35;21.52;;;14.02;;
51636;SDS011;37713;53.254;6.460;2023-04-06T10:38:03;23.13;;;14.73;;
51636;SDS011;37713;53.254;6.460;2023-04-06T10:40:29;23.42;;;15.07;;
51636;SDS011;37713;53.254;6.460;2023-04-06T10:43:06;23.77;;;14.50;;
51636;SDS011;37713;53.254;6.460;2023-04-06T10:45:33;23.67;;;15.45;;
51636;SDS011;37713;53.254;6.460;2023-04-06T10:47:59;23.88;;;14.68;;
51636;SDS011;37713;53.254;6.460;2023-04-06T10:50:25;25.23;;;15.77;;
51636;SDS011;37713;53.254;6.460;2023-04-06T10:53:01;22.27;;;14.82;;
51636;SDS011;37713;53.254;6.460;2023-04-06T10:55:28;27.52;;;16.73;;
51636;SDS011;37713;53.254;6.460;2023-04-06T10:57:55;27.58;;;16.55;;
51636;SDS011;37713;53.254;6.460;2023-04-06T11:00:21;30.10;;;17.70;;
51636;SDS011;37713;53.254;6.460;2023-04-06T11:02:47;31.73;;;18.35;;
51636;SDS011;37713;53.254;6.460;2023-04-06T11:05:14;30.33;;;17.20;;
51636;SDS011;37713;53.254;6.460;2023-04-06T11:07:40;34.28;;;20.52;;
51636;SDS011;37713;53.254;6.460;2023-04-06T11:10:07;35.10;;;20.85;;
51636;SDS011;37713;53.254;6.460;2023-04-06T11:12:34;32.67;;;20.80;;
51636;SDS011;37713;53.254;6.460;2023-04-06T11:15:00;33.42;;;20.70;;
51636;SDS011;37713;53.254;6.460;2023-04-06T11:17:31;30.60;;;20.45;;
51636;SDS011;37713;53.254;6.460;2023-04-06T11:20:01;33.13;;;20.48;;
51636;SDS011;37713;53.254;6.460;2023-04-06T11:22:29;31.58;;;20.50;;
51636;SDS011;37713;53.254;6.460;2023-04-06T11:25:05;34.80;;;19.58;;
51636;SDS011;37713;53.254;6.460;2023-04-06T11:27:33;35.88;;;22.30;;
51636;SDS011;37713;53.254;6.460;2023-04-06T11:29:59;37.30;;;21.85;;
51636;SDS011;37713;53.254;6.460;2023-04-06T11:32:26;35.70;;;22.20;;
51636;SDS011;37713;53.254;6.460;2023-04-06T11:34:52;34.80;;;22.08;;
51636;SDS011;37713;53.254;6.460;2023-04-06T11:37:18;36.17;;;22.65;;
51636;SDS011;37713;53.254;6.460;2023-04-06T11:39:51;36.92;;;22.70;;
51636;SDS011;37713;53.254;6.460;2023-04-06T11:44:50;35.78;;;22.15;;
51636;SDS011;37713;53.254;6.460;2023-04-06T11:47:18;35.58;;;22.08;;
51636;SDS011;37713;53.254;6.460;2023-04-06T11:49:45;34.78;;;22.88;;
51636;SDS011;37713;53.254;6.460;2023-04-06T11:52:16;33.55;;;21.13;;
51636;SDS011;37713;53.254;6.460;2023-04-06T11:57:08;35.60;;;20.88;;
51636;SDS011;37713;53.254;6.460;2023-04-06T11:59:34;38.22;;;21.13;;
51636;SDS011;37713;53.254;6.460;2023-04-06T12:02:01;31.63;;;20.52;;
51636;SDS011;37713;53.254;6.460;2023-04-06T12:04:27;31.48;;;20.60;;
51636;SDS011;37713;53.254;6.460;2023-04-06T12:06:53;32.25;;;21.33;;
51636;SDS011;37713;53.254;6.460;2023-04-06T12:09:20;36.30;;;21.13;;
51636;SDS011;37713;53.254;6.460;2023-04-06T12:11:46;31.75;;;20.40;;
51636;SDS011;37713;53.254;6.460;2023-04-06T12:14:12;33.60;;;21.45;;
51636;SDS011;37713;53.254;6.460;2023-04-06T12:16:38;31.30;;;21.10;;
51636;SDS011;37713;53.254;6.460;2023-04-06T12:19:05;30.20;;;20.73;;
51636;SDS011;37713;53.254;6.460;2023-04-06T12:21:31;33.17;;;21.15;;
51636;SDS011;37713;53.254;6.460;2023-04-06T12:23:58;34.92;;;21.25;;
51636;SDS011;37713;53.254;6.460;2023-04-06T12:26:25;33.55;;;20.95;;
51636;SDS011;37713;53.254;6.460;2023-04-06T12:28:51;37.75;;;22.60;;
51636;SDS011;37713;53.254;6.460;2023-04-06T12:31:18;34.75;;;22.75;;
51636;SDS011;37713;53.254;6.460;2023-04-06T12:33:46;33.45;;;22.48;;
51636;SDS011;37713;53.254;6.460;2023-04-06T12:36:13;34.33;;;22.02;;
51636;SDS011;37713;53.254;6.460;2023-04-06T12:38:40;38.00;;;23.08;;
51636;SDS011;37713;53.254;6.460;2023-04-06T12:41:06;37.03;;;22.85;;
51636;SDS011;37713;53.254;6.460;2023-04-06T12:43:33;34.22;;;21.58;;
51636;SDS011;37713;53.254;6.460;2023-04-06T12:45:58;38.42;;;22.88;;
51636;SDS011;37713;53.254;6.460;2023-04-06T12:48:25;34.05;;;22.58;;
51636;SDS011;37713;53.254;6.460;2023-04-06T12:50:59;35.05;;;22.05;;
51636;SDS011;37713;53.254;6.460;2023-04-06T12:53:26;36.72;;;22.55;;
51636;SDS011;37713;53.254;6.460;2023-04-06T12:55:53;33.85;;;22.33;;
51636;SDS011;37713;53.254;6.460;2023-04-06T12:58:23;36.45;;;22.40;;
51636;SDS011;37713;53.254;6.460;2023-04-06T13:00:53;33.78;;;22.23;;
51636;SDS011;37713;53.254;6.460;2023-04-06T13:03:21;35.05;;;22.00;;
51636;SDS011;37713;53.254;6.460;2023-04-06T13:05:48;35.05;;;23.02;;
51636;SDS011;37713;53.254;6.460;2023-04-06T13:08:17;34.57;;;23.03;;
51636;SDS011;37713;53.254;6.460;2023-04-06T13:10:44;35.72;;;21.95;;
51636;SDS011;37713;53.254;6.460;2023-04-06T13:13:13;35.08;;;21.50;;
51636;SDS011;37713;53.254;6.460;2023-04-06T13:15:40;34.55;;;22.35;;
51636;SDS011;37713;53.254;6.460;2023-04-06T13:18:06;33.60;;;22.52;;
51636;SDS011;37713;53.254;6.460;2023-04-06T13:20:32;37.45;;;22.45;;
51636;SDS011;37713;53.254;6.460;2023-04-06T13:22:58;33.65;;;20.95;;
51636;SDS011;37713;53.254;6.460;2023-04-06T13:25:24;36.15;;;22.77;;
51636;SDS011;37713;53.254;6.460;2023-04-06T13:27:50;34.50;;;21.73;;
51636;SDS011;37713;53.254;6.460;2023-04-06T13:30:16;32.88;;;21.88;;
51636;SDS011;37713;53.254;6.460;2023-04-06T13:32:42;32.50;;;21.73;;
51636;SDS011;37713;53.254;6.460;2023-04-06T13:35:08;35.15;;;22.27;;
51636;SDS011;37713;53.254;6.460;2023-04-06T13:37:34;32.50;;;21.38;;
51636;SDS011;37713;53.254;6.460;2023-04-06T13:40:01;32.28;;;20.98;;
51636;SDS011;37713;53.254;6.460;2023-04-06T13:42:28;32.80;;;21.35;;
51636;SDS011;37713;53.254;6.460;2023-04-06T13:44:54;28.13;;;19.15;;
51636;SDS011;37713;53.254;6.460;2023-04-06T13:47:20;28.65;;;18.55;;
51636;SDS011;37713;53.254;6.460;2023-04-06T13:49:46;27.63;;;17.92;;
51636;SDS011;37713;53.254;6.460;2023-04-06T13:52:12;24.65;;;17.05;;
51636;SDS011;37713;53.254;6.460;2023-04-06T13:54:38;26.63;;;15.73;;
51636;SDS011;37713;53.254;6.460;2023-04-06T13:57:04;21.10;;;12.95;;
51636;SDS011;37713;53.254;6.460;2023-04-06T13:59:33;17.45;;;10.57;;
51636;SDS011;37713;53.254;6.460;2023-04-06T14:01:59;21.20;;;10.20;;
51636;SDS011;37713;53.254;6.460;2023-04-06T14:04:25;21.42;;;10.18;;
51636;SDS011;37713;53.254;6.460;2023-04-06T14:06:51;19.00;;;11.18;;
51636;SDS011;37713;53.254;6.460;2023-04-06T14:09:17;16.33;;;10.32;;
51636;SDS011;37713;53.254;6.460;2023-04-06T14:11:43;19.52;;;11.70;;
51636;SDS011;37713;53.254;6.460;2023-04-06T14:14:09;18.85;;;11.45;;
51636;SDS011;37713;53.254;6.460;2023-04-06T14:16:35;20.20;;;12.07;;
51636;SDS011;37713;53.254;6.460;2023-04-06T14:19:01;19.50;;;13.10;;
51636;SDS011;37713;53.254;6.460;2023-04-06T14:21:27;24.42;;;12.98;;
51636;SDS011;37713;53.254;6.460;2023-04-06T14:23:53;19.50;;;13.05;;
51636;SDS011;37713;53.254;6.460;2023-04-06T14:26:20;26.60;;;14.20;;
51636;SDS011;37713;53.254;6.460;2023-04-06T14:28:46;19.58;;;12.02;;
51636;SDS011;37713;53.254;6.460;2023-04-06T14:31:15;20.08;;;12.40;;
51636;SDS011;37713;53.254;6.460;2023-04-06T14:33:41;23.27;;;12.65;;
51636;SDS011;37713;53.254;6.460;2023-04-06T14:36:08;21.17;;;12.80;;
51636;SDS011;37713;53.254;6.460;2023-04-06T14:38:34;23.77;;;13.55;;
51636;SDS011;37713;53.254;6.460;2023-04-06T14:41:00;18.95;;;13.05;;
51636;SDS011;37713;53.254;6.460;2023-04-06T14:43:26;23.55;;;14.07;;
51636;SDS011;37713;53.254;6.460;2023-04-06T14:45:52;20.83;;;13.48;;